Galena, Alaska
Current Conditions -  °F | °C
As of 2:58 AM on Monday 20 Oct 2014 (Local Time) from PAGA Reporting Station
Overcast Overcast  
Wind Chill: 19°   Ceiling: 6000
Heat Index: 26°   Visibility: 10mi
Dew Point: 22°   Wind: 6mph
Humidity: 84%   Direction: 360°N
Pressure: 29.31"   Gusts: NA
Location:  64.74°N, 156.93°W
Report Text: PAGA 201058Z AUTO 36005KT 10SM OVC060 M03/M06 A2931 RMK AO2 SLP930 T10331056 FZRANO
Loading
Personal Weather Stations






























Interactive Weather Map
Tropical Storm Tracking
New forecast layout! Learn more

10-Day Weather Forecast

Advertisements
Track Severe Weather on mobile